Time;durP1;ratioP1;P1;durP2;ratioP2;P2;SDS_P1;SDS_P2;PMS_P1;PMS_P2;Temp;Humidity;BMP_temperature;BMP_pressure;BME280_temperature;BME280_humidity;BME280_pressure;Samples;Min_cycle;Max_cycle;Signal;HPM_P1;HPM_P2
2023/09/19 00:00:36;;;;;;;;;1.00;0.00;;;;;20.93;52.88;100951.47;5036774;28;45477;-68
2023/09/19 00:03:03;;;;;;;;;1.00;1.00;;;;;20.91;52.19;100940.00;5057627;28;45391;-69
2023/09/19 00:05:34;;;;;;;;;2.00;1.00;;;;;20.92;52.10;100955.91;5047771;28;45587;-67
2023/09/19 00:08:01;;;;;;;;;1.00;1.00;;;;;20.79;52.15;100957.31;5070633;28;45963;-67
2023/09/19 00:10:30;;;;;;;;;1.00;1.00;;;;;20.72;52.26;100950.47;5039853;28;45479;-68
2023/09/19 00:12:58;;;;;;;;;2.67;1.00;;;;;20.79;52.36;100957.31;5064222;28;45366;-68
2023/09/19 00:15:28;;;;;;;;;1.67;1.67;;;;;20.77;52.29;100948.50;5079168;27;45544;-67
2023/09/19 00:17:54;;;;;;;;;1.67;1.33;;;;;20.80;51.68;100951.03;5077800;27;45493;-67
2023/09/19 00:20:22;;;;;;;;;2.67;1.33;;;;;20.76;52.03;100949.41;5078036;28;45361;-67
2023/09/19 00:22:49;;;;;;;;;3.33;1.33;;;;;20.77;51.82;100955.63;5076716;27;45314;-70
2023/09/19 00:25:18;;;;;;;;;1.00;1.00;;;;;20.64;52.17;100941.88;5077570;27;45537;-68
2023/09/19 00:27:44;;;;;;;;;1.00;1.00;;;;;20.63;51.84;100945.50;5081567;27;47047;-67
2023/09/19 00:30:14;;;;;;;;;1.00;1.00;;;;;20.64;52.36;100964.03;5057596;27;45401;-67
2023/09/19 00:32:40;;;;;;;;;1.00;1.00;;;;;20.58;52.30;100972.25;5065552;28;45534;-67
2023/09/19 00:35:08;;;;;;;;;0.33;0.00;;;;;20.47;52.90;100961.09;5076309;27;45621;-68
2023/09/19 00:37:49;;;;;;;;;1.67;1.00;;;;;20.47;53.16;100971.72;5058715;27;45464;-68
2023/09/19 00:40:16;;;;;;;;;2.00;1.00;;;;;20.44;52.95;100969.19;5068983;28;45630;-70
2023/09/19 00:42:49;;;;;;;;;2.33;1.33;;;;;20.48;53.20;100982.34;5063562;27;45466;-68
2023/09/19 00:45:17;;;;;;;;;3.67;0.33;;;;;20.26;53.34;100957.38;5061170;27;45450;-69
2023/09/19 00:47:51;;;;;;;;;0.00;0.00;;;;;20.15;53.53;100939.16;5057614;27;45532;-68
2023/09/19 00:50:25;;;;;;;;;0.00;0.00;;;;;20.08;53.85;100950.94;5056635;27;45478;-68
2023/09/19 00:52:55;;;;;;;;;1.00;0.33;;;;;20.06;53.98;100971.38;5056533;27;45563;-68
2023/09/19 00:55:21;;;;;;;;;1.33;1.33;;;;;20.19;54.21;100988.63;5056655;27;45460;-67
2023/09/19 00:57:49;;;;;;;;;0.67;0.67;;;;;20.21;54.11;100986.81;5066972;27;46144;-68
2023/09/19 01:00:15;;;;;;;;;1.67;0.00;;;;;20.23;54.12;100981.44;5055610;28;45431;-68
2023/09/19 01:02:43;;;;;;;;;1.00;1.00;;;;;20.18;54.34;100970.09;5062343;28;45439;-67
2023/09/19 01:05:09;;;;;;;;;1.00;1.00;;;;;20.27;54.35;100983.09;5073246;28;45518;-68
2023/09/19 01:07:36;;;;;;;;;1.00;1.00;;;;;20.24;54.30;100975.19;5076908;28;46040;-67
2023/09/19 01:10:09;;;;;;;;;1.00;1.00;;;;;20.28;54.48;100979.50;5077941;27;45755;-67
2023/09/19 01:13:00;;;;;;;;;3.33;0.33;;;;;20.33;54.41;100980.19;5077017;28;45324;-68
2023/09/19 01:15:44;;;;;;;;;2.33;1.00;;;;;20.29;54.67;100983.91;5075617;28;45334;-67
2023/09/19 01:18:25;;;;;;;;;2.00;0.00;;;;;20.26;54.75;100990.19;5076597;28;45637;-68
2023/09/19 01:21:07;;;;;;;;;1.00;1.00;;;;;20.18;54.97;100986.06;5075242;27;45459;-70
2023/09/19 01:24:11;;;;;;;;;3.00;1.00;;;;;20.24;54.75;100993.81;5076933;28;46041;-69
2023/09/19 01:26:45;;;;;;;;;1.67;1.00;;;;;20.25;54.95;100999.09;5064434;28;45430;-68
2023/09/19 01:29:29;;;;;;;;;1.00;1.00;;;;;20.20;54.82;100984.22;5076420;28;46415;-68
2023/09/19 01:32:04;;;;;;;;;0.67;0.33;;;;;20.19;54.89;100985.13;5109288;27;45382;-68
2023/09/19 01:34:50;;;;;;;;;2.67;1.00;;;;;20.18;54.79;100981.59;5072817;28;45440;-67
2023/09/19 01:37:20;;;;;;;;;1.00;0.00;;;;;20.22;54.89;100991.22;5072580;28;45588;-69
2023/09/19 01:39:52;;;;;;;;;1.00;1.00;;;;;20.06;54.77;100979.34;5077246;27;45495;-68
2023/09/19 01:42:24;;;;;;;;;4.00;1.00;;;;;20.16;55.05;100999.38;5079514;28;45542;-69
2023/09/19 01:44:59;;;;;;;;;2.67;1.33;;;;;19.98;55.21;100984.03;5066715;28;45551;-68
2023/09/19 01:47:55;;;;;;;;;1.33;1.33;;;;;19.99;55.36;100999.09;5078952;27;45350;-68
2023/09/19 01:50:41;;;;;;;;;2.00;0.67;;;;;20.02;55.17;100993.66;5095634;27;46321;-68
2023/09/19 01:53:36;;;;;;;;;2.67;0.00;;;;;19.82;55.32;100978.38;5079722;28;45396;-67
2023/09/19 01:56:07;;;;;;;;;2.67;1.00;;;;;19.71;55.67;100976.06;5080599;28;45449;-68
2023/09/19 01:58:39;;;;;;;;;1.00;1.00;;;;;19.66;56.01;100993.91;5080509;27;45512;-68
2023/09/19 02:01:08;;;;;;;;;3.00;1.33;;;;;19.69;55.82;101005.34;5069058;27;46157;-67
2023/09/19 02:03:36;;;;;;;;;1.00;1.00;;;;;19.59;56.06;100990.56;5076770;28;45377;-68
2023/09/19 02:06:03;;;;;;;;;3.00;1.00;;;;;19.64;55.98;101006.38;5080352;28;45420;-67
2023/09/19 02:08:33;;;;;;;;;2.00;1.00;;;;;19.70;56.08;101006.22;5080355;27;45342;-67
2023/09/19 02:10:59;;;;;;;;;1.00;0.00;;;;;19.70;55.96;101004.44;5079747;28;46536;-68
2023/09/19 02:13:27;;;;;;;;;0.67;0.67;;;;;19.66;55.83;101007.19;5079562;28;45453;-67
2023/09/19 02:15:53;;;;;;;;;2.33;0.33;;;;;19.54;55.77;100995.16;5079790;27;45433;-69
2023/09/19 02:18:19;;;;;;;;;3.67;0.67;;;;;19.51;56.49;101021.81;5080296;28;45507;-69
2023/09/19 02:20:45;;;;;;;;;1.00;1.00;;;;;19.42;56.55;101007.03;5078316;27;47845;-68
2023/09/19 02:23:12;;;;;;;;;2.00;1.00;;;;;19.38;56.93;101016.00;5079497;28;45338;-67
2023/09/19 02:25:40;;;;;;;;;1.00;1.00;;;;;19.28;56.99;101002.13;5079619;28;45417;-68
2023/09/19 02:28:09;;;;;;;;;2.00;1.00;;;;;19.44;56.58;101007.84;5079998;28;45360;-69
2023/09/19 02:30:36;;;;;;;;;0.33;0.33;;;;;19.42;56.55;101006.16;5077785;28;45483;-69
2023/09/19 02:33:08;;;;;;;;;3.00;1.00;;;;;19.38;56.46;100989.44;5079439;27;45392;-68
2023/09/19 02:35:36;;;;;;;;;0.67;0.33;;;;;19.35;56.75;101002.81;5112458;27;45473;-67
2023/09/19 02:38:06;;;;;;;;;2.00;1.00;;;;;19.30;56.51;100978.19;5079265;27;45583;-69
2023/09/19 02:40:35;;;;;;;;;1.00;1.00;;;;;19.44;56.43;101010.50;5074301;28;45543;-68
2023/09/19 02:43:01;;;;;;;;;1.67;0.00;;;;;19.34;56.76;101009.06;5069820;28;45326;-68
2023/09/19 02:45:27;;;;;;;;;1.00;1.00;;;;;19.38;56.84;101013.34;5079298;28;45366;-68
2023/09/19 02:47:53;;;;;;;;;5.00;1.00;;;;;19.38;56.71;101007.16;5078489;27;45397;-68
2023/09/19 02:50:19;;;;;;;;;1.00;1.00;;;;;19.22;57.04;101004.09;5066178;27;45496;-69
2023/09/19 02:52:49;;;;;;;;;1.33;1.00;;;;;19.31;56.82;101009.13;5078407;27;45313;-69
2023/09/19 02:55:19;;;;;;;;;1.00;1.00;;;;;19.40;56.58;101006.19;5077866;27;45378;-67
2023/09/19 02:57:54;;;;;;;;;1.33;1.00;;;;;19.39;56.83;101008.94;5094659;27;45462;-67
2023/09/19 03:00:21;;;;;;;;;1.00;1.00;;;;;19.28;56.76;100993.28;5067217;27;46707;-68
2023/09/19 03:02:52;;;;;;;;;1.00;1.00;;;;;19.35;56.46;101007.28;5061307;27;45497;-67
2023/09/19 03:05:19;;;;;;;;;1.00;1.00;;;;;19.40;56.83;101002.69;5074008;27;45456;-68
2023/09/19 03:07:55;;;;;;;;;2.00;0.00;;;;;19.35;57.03;100994.84;5079236;27;45445;-68
2023/09/19 03:10:22;;;;;;;;;1.33;1.33;;;;;19.31;56.64;100993.19;5065690;27;46446;-69
2023/09/19 03:12:48;;;;;;;;;2.67;2.00;;;;;19.33;56.70;101001.13;5078475;28;45467;-67
2023/09/19 03:15:23;;;;;;;;;5.00;2.00;;;;;19.31;56.65;101000.31;5078671;27;45429;-69
2023/09/19 03:17:49;;;;;;;;;1.00;1.00;;;;;19.21;56.94;100991.75;5064179;27;45492;-68
2023/09/19 03:20:18;;;;;;;;;1.00;1.00;;;;;19.18;57.10;100999.81;5093907;27;46827;-68
2023/09/19 03:22:44;;;;;;;;;2.67;1.00;;;;;19.26;57.13;101001.31;5077909;27;45259;-68
2023/09/19 03:25:11;;;;;;;;;3.33;2.00;;;;;19.22;56.57;100999.69;5078427;27;45350;-70
2023/09/19 03:27:40;;;;;;;;;3.00;1.00;;;;;19.25;56.98;100994.25;5078792;28;45492;-69
2023/09/19 03:30:08;;;;;;;;;1.33;0.00;;;;;19.30;57.09;101003.88;5076853;27;45524;-68
2023/09/19 03:32:43;;;;;;;;;1.00;1.00;;;;;19.30;56.89;101007.41;5078083;27;45476;-67
2023/09/19 03:35:11;;;;;;;;;0.67;0.67;;;;;19.22;57.27;100983.75;5078213;28;46053;-68
2023/09/19 03:37:36;;;;;;;;;1.00;1.00;;;;;19.15;56.41;100966.25;5078616;28;45601;-68
2023/09/19 03:40:04;;;;;;;;;1.67;1.00;;;;;19.34;56.84;101011.72;5064120;27;46473;-68
2023/09/19 03:42:31;;;;;;;;;2.00;1.00;;;;;19.25;57.03;101007.53;5078949;27;45425;-67
2023/09/19 03:44:56;;;;;;;;;1.00;1.00;;;;;19.15;57.16;100995.47;5079428;27;45217;-68
2023/09/19 03:47:22;;;;;;;;;3.67;1.00;;;;;19.17;57.06;101003.34;5080362;27;45339;-67
2023/09/19 03:49:48;;;;;;;;;2.67;1.00;;;;;19.17;56.92;101004.25;5081411;27;46327;-69
2023/09/19 03:52:15;;;;;;;;;1.67;1.00;;;;;19.21;56.81;101003.22;5078660;27;45795;-68
2023/09/19 03:54:41;;;;;;;;;3.00;1.00;;;;;19.14;56.84;101008.78;5080541;27;45376;-69
2023/09/19 03:57:07;;;;;;;;;3.33;1.00;;;;;19.17;57.20;101003.34;5080358;27;45279;-68
2023/09/19 03:59:35;;;;;;;;;5.00;1.00;;;;;19.20;56.89;101003.28;5079445;27;45495;-68
2023/09/19 04:02:02;;;;;;;;;2.67;1.00;;;;;19.21;57.21;101002.38;5080038;27;45503;-68
2023/09/19 04:04:29;;;;;;;;;4.00;1.00;;;;;19.24;56.87;100994.28;5079208;28;45287;-68
2023/09/19 04:06:55;;;;;;;;;1.00;1.00;;;;;19.25;56.68;101002.22;5081424;27;45291;-68
2023/09/19 04:09:20;;;;;;;;;1.67;1.33;;;;;19.13;57.00;101001.72;5081866;27;46196;-67
2023/09/19 04:11:46;;;;;;;;;1.00;1.00;;;;;19.02;57.13;101000.25;5085256;28;45330;-67
2023/09/19 04:14:12;;;;;;;;;2.00;2.00;;;;;18.83;57.78;101004.34;5083562;27;45202;-68
2023/09/19 04:16:38;;;;;;;;;2.00;0.67;;;;;18.68;57.69;100981.72;5082250;28;45348;-67
2023/09/19 04:19:05;;;;;;;;;3.00;1.00;;;;;18.74;58.22;100996.59;5078333;27;45550;-68
2023/09/19 04:21:32;;;;;;;;;1.67;1.00;;;;;18.73;58.00;101005.47;5093913;27;45507;-68
2023/09/19 04:23:57;;;;;;;;;0.67;0.33;;;;;18.68;58.12;100967.59;5078803;27;45346;-68
2023/09/19 04:26:25;;;;;;;;;3.33;0.00;;;;;18.76;57.47;100973.53;5079353;27;45527;-68
2023/09/19 04:28:51;;;;;;;;;3.67;1.00;;;;;18.79;57.01;100979.69;5079106;27;46040;-68
2023/09/19 04:31:18;;;;;;;;;1.33;1.33;;;;;18.73;57.79;100989.56;5077387;27;45337;-68
2023/09/19 04:33:43;;;;;;;;;3.00;1.00;;;;;18.73;57.63;100990.41;5077556;28;45962;-68
2023/09/19 04:36:09;;;;;;;;;2.00;1.33;;;;;18.88;57.33;100999.75;5078794;27;46156;-68
2023/09/19 04:38:35;;;;;;;;;0.00;0.00;;;;;18.79;57.45;100994.72;5077163;27;45551;-68
2023/09/19 04:41:00;;;;;;;;;1.00;1.00;;;;;18.75;57.25;100996.56;5078014;27;45359;-68
2023/09/19 04:43:26;;;;;;;;;1.00;1.00;;;;;18.79;57.32;101000.91;5078450;27;45539;-69
2023/09/19 04:45:55;;;;;;;;;5.00;1.67;;;;;18.77;57.35;100999.19;5076402;27;45494;-68
2023/09/19 04:48:24;;;;;;;;;1.00;0.67;;;;;18.63;57.44;100983.63;5092669;27;47588;-68
2023/09/19 04:50:50;;;;;;;;;2.00;2.00;;;;;18.76;57.16;100995.66;5070839;27;45825;-68
2023/09/19 04:53:20;;;;;;;;;2.00;1.00;;;;;18.83;57.34;100993.72;5070219;27;45408;-69
2023/09/19 04:55:50;;;;;;;;;2.33;1.00;;;;;18.95;57.03;101000.47;5093385;27;45354;-68
2023/09/19 04:58:16;;;;;;;;;2.33;1.00;;;;;18.87;57.07;100997.19;5075602;27;46316;-69
2023/09/19 05:00:42;;;;;;;;;3.00;1.00;;;;;19.06;57.15;101011.66;5076747;27;45443;-68
2023/09/19 05:03:08;;;;;;;;;3.00;0.67;;;;;19.11;56.75;101017.69;5076941;28;45523;-68
2023/09/19 05:05:34;;;;;;;;;3.00;1.00;;;;;19.14;56.78;101035.31;5077629;27;45471;-69
2023/09/19 05:08:00;;;;;;;;;1.00;1.00;;;;;19.13;56.74;101030.94;5078203;27;46254;-69
2023/09/19 05:10:25;;;;;;;;;1.67;1.00;;;;;19.06;57.12;101020.47;5077586;27;45275;-67
2023/09/19 05:12:55;;;;;;;;;2.00;1.33;;;;;18.96;57.05;101024.31;5076587;27;45261;-68
2023/09/19 05:15:21;;;;;;;;;0.67;0.67;;;;;18.93;57.29;101024.38;5077710;28;45525;-68
2023/09/19 05:17:51;;;;;;;;;3.00;1.00;;;;;18.92;57.38;101027.09;5072960;27;47511;-68
2023/09/19 05:20:24;;;;;;;;;2.00;1.67;;;;;18.80;57.79;101025.66;5067624;27;45515;-68
2023/09/19 05:23:13;;;;;;;;;1.67;1.67;;;;;18.78;57.80;101027.47;5074996;27;45398;-69
2023/09/19 05:25:40;;;;;;;;;2.00;2.00;;;;;18.69;57.41;101012.63;5076711;27;45374;-69
2023/09/19 05:28:07;;;;;;;;;1.00;1.00;;;;;18.78;57.68;101030.13;5076337;27;45616;-68
2023/09/19 05:30:33;;;;;;;;;3.00;3.00;;;;;18.78;57.19;101033.66;5076508;27;45620;-68
2023/09/19 05:32:59;;;;;;;;;1.67;1.67;;;;;18.78;57.60;101031.00;5076885;27;45261;-68
2023/09/19 05:35:26;;;;;;;;;3.00;2.00;;;;;18.69;57.43;101022.38;5076851;28;45551;-69
2023/09/19 05:37:52;;;;;;;;;2.67;2.00;;;;;18.62;57.59;101025.19;5076277;27;45453;-69
2023/09/19 05:40:18;;;;;;;;;1.67;1.67;;;;;18.72;57.59;101038.22;5077202;27;45479;-68
2023/09/19 05:42:44;;;;;;;;;4.00;2.67;;;;;18.49;57.76;101002.56;5075993;28;45532;-69
2023/09/19 05:45:14;;;;;;;;;1.33;1.33;;;;;18.73;57.58;101034.66;5076480;28;45666;-69
2023/09/19 05:47:45;;;;;;;;;3.00;1.00;;;;;18.83;57.50;101046.78;5077118;28;46600;-70
2023/09/19 05:50:11;;;;;;;;;3.00;2.00;;;;;18.80;57.56;101054.84;5076675;27;45408;-69
2023/09/19 05:52:43;;;;;;;;;2.33;2.33;;;;;18.69;57.75;101041.81;5064914;27;45339;-68
2023/09/19 05:55:10;;;;;;;;;1.67;1.67;;;;;18.81;57.50;101061.88;5076176;28;45582;-68
2023/09/19 05:57:39;;;;;;;;;2.33;1.67;;;;;18.79;57.89;101063.69;5069236;28;45528;-67
2023/09/19 06:00:10;;;;;;;;;3.00;2.67;;;;;18.87;57.66;101072.34;5059243;27;45516;-68
2023/09/19 06:02:37;;;;;;;;;2.00;1.67;;;;;18.86;57.23;101065.28;5056361;27;45541;-69
2023/09/19 06:05:06;;;;;;;;;2.33;1.00;;;;;18.75;57.07;101059.38;5055938;28;45408;-69
2023/09/19 06:07:36;;;;;;;;;2.00;2.00;;;;;18.84;57.35;101067.13;5055580;28;45544;-69
2023/09/19 06:10:07;;;;;;;;;2.00;2.00;;;;;18.87;57.73;101072.34;5055342;27;45475;-69
2023/09/19 06:12:37;;;;;;;;;3.67;2.33;;;;;18.91;57.07;101065.16;5054841;27;45280;-68
2023/09/19 06:15:05;;;;;;;;;2.67;2.67;;;;;18.90;57.68;101068.72;5056189;27;45553;-68
2023/09/19 06:17:31;;;;;;;;;5.00;2.00;;;;;18.87;57.48;101075.00;5055119;27;45594;-69
2023/09/19 06:19:56;;;;;;;;;2.33;2.33;;;;;18.76;57.88;101051.38;5061125;28;45505;-69
2023/09/19 06:22:23;;;;;;;;;1.67;1.67;;;;;18.96;57.66;101072.09;5055521;28;45281;-69
2023/09/19 06:24:50;;;;;;;;;4.33;1.33;;;;;19.03;58.09;101063.06;5056271;28;45429;-69
2023/09/19 06:27:15;;;;;;;;;2.00;2.00;;;;;19.15;57.08;101071.56;5055850;28;46080;-70
2023/09/19 06:29:47;;;;;;;;;1.33;1.33;;;;;19.17;56.90;101060.00;5058448;27;45798;-73
2023/09/19 06:32:13;;;;;;;;;1.33;1.00;;;;;19.15;56.23;101051.22;5063190;27;45619;-70
2023/09/19 06:34:38;;;;;;;;;1.33;1.00;;;;;19.34;56.26;101071.91;5059952;27;45555;-69
2023/09/19 06:37:06;;;;;;;;;4.00;2.00;;;;;19.38;56.07;101079.75;5068929;27;46195;-69
2023/09/19 06:39:31;;;;;;;;;5.00;3.00;;;;;19.30;56.08;101081.75;5058527;27;45495;-69
2023/09/19 06:41:58;;;;;;;;;3.00;1.67;;;;;19.07;56.19;101040.78;5071683;27;45579;-69
2023/09/19 06:44:24;;;;;;;;;3.00;2.00;;;;;19.30;55.77;101075.59;5059754;27;45375;-68
2023/09/19 06:46:51;;;;;;;;;2.33;0.33;;;;;19.28;55.77;101083.59;5058825;27;46405;-69
2023/09/19 06:49:17;;;;;;;;;1.00;1.00;;;;;19.24;56.01;101087.22;5059414;27;45468;-69
2023/09/19 06:51:43;;;;;;;;;4.33;2.00;;;;;18.94;56.41;101063.31;5066288;28;45503;-69
2023/09/19 06:54:09;;;;;;;;;1.00;1.00;;;;;19.15;56.25;101087.50;5080951;27;45431;-66
2023/09/19 06:56:35;;;;;;;;;2.00;1.33;;;;;19.31;55.85;101072.88;5079559;27;45499;-66
2023/09/19 06:59:02;;;;;;;;;2.00;2.00;;;;;19.45;55.44;101067.16;5078888;27;45294;-66
2023/09/19 07:01:28;;;;;;;;;1.33;1.33;;;;;19.64;55.15;101081.63;5078642;27;45489;-66
2023/09/19 07:03:54;;;;;;;;;2.67;1.33;;;;;19.72;54.96;101061.94;5078637;27;45474;-66
2023/09/19 07:06:20;;;;;;;;;2.33;1.33;;;;;19.89;54.24;101071.16;5077168;27;47724;-67
2023/09/19 07:08:46;;;;;;;;;3.33;1.33;;;;;20.06;53.79;101080.41;5078917;27;45307;-66
2023/09/19 07:11:12;;;;;;;;;4.67;3.00;;;;;20.00;53.55;101051.34;5095068;27;45207;-66
2023/09/19 07:13:39;;;;;;;;;4.00;2.00;;;;;20.22;53.17;101078.13;5078874;27;45441;-66
2023/09/19 07:16:04;;;;;;;;;2.00;2.00;;;;;20.05;53.45;101060.03;5074080;27;46417;-68
2023/09/19 07:18:31;;;;;;;;;4.00;3.67;;;;;20.25;53.00;101083.31;5058591;28;45466;-66
2023/09/19 07:21:04;;;;;;;;;4.00;1.00;;;;;20.29;53.00;101080.53;5058087;27;45572;-67
2023/09/19 07:23:34;;;;;;;;;2.67;2.00;;;;;20.36;52.72;101075.88;5056923;27;45433;-66
2023/09/19 07:26:01;;;;;;;;;3.00;2.67;;;;;20.27;52.52;101052.25;5056541;27;47913;-67
2023/09/19 07:28:28;;;;;;;;;3.00;1.00;;;;;20.40;52.51;101073.97;5067438;27;45288;-67
2023/09/19 07:30:54;;;;;;;;;1.00;1.00;;;;;20.28;52.34;101060.16;5065649;27;45423;-67
2023/09/19 07:33:20;;;;;;;;;4.00;1.33;;;;;20.27;52.45;101061.06;5068674;28;45370;-68
2023/09/19 07:35:48;;;;;;;;;2.33;2.00;;;;;20.43;52.35;101068.53;5076310;27;45535;-67
2023/09/19 07:38:14;;;;;;;;;2.00;2.00;;;;;20.49;51.99;101071.00;5058830;27;45228;-67
2023/09/19 07:40:40;;;;;;;;;1.00;1.00;;;;;20.56;51.74;101059.25;5057465;27;45311;-70
2023/09/19 07:43:06;;;;;;;;;4.33;2.33;;;;;20.54;51.53;101066.38;5058053;27;45464;-69
2023/09/19 07:45:32;;;;;;;;;2.00;1.00;;;;;20.47;51.34;101039.13;5058258;27;46759;-70
2023/09/19 07:47:58;;;;;;;;;3.67;2.00;;;;;20.40;51.84;101037.59;5057255;27;45617;-68
2023/09/19 07:50:23;;;;;;;;;3.67;1.00;;;;;20.50;51.51;101056.75;5057186;28;45522;-68
2023/09/19 07:52:53;;;;;;;;;1.33;1.00;;;;;20.60;51.56;101070.69;5066813;28;45492;-71
2023/09/19 07:55:24;;;;;;;;;2.67;2.67;;;;;20.44;51.18;101046.34;5077646;27;45513;-68
2023/09/19 07:57:50;;;;;;;;;2.33;1.00;;;;;20.62;50.90;101067.03;5074816;27;45425;-71
2023/09/19 08:00:15;;;;;;;;;3.00;1.33;;;;;20.64;50.83;101073.16;5058015;27;45489;-70
2023/09/19 08:02:43;;;;;;;;;3.33;1.33;;;;;20.71;50.64;101069.34;5059195;28;45495;-68
2023/09/19 08:05:10;;;;;;;;;3.33;1.00;;;;;20.78;50.58;101074.47;5057767;27;46671;-68
2023/09/19 08:07:40;;;;;;;;;2.00;2.00;;;;;20.86;50.21;101075.09;5061381;27;45515;-69
2023/09/19 08:10:13;;;;;;;;;2.33;1.00;;;;;20.73;50.79;101078.16;5058692;27;45546;-68
2023/09/19 08:12:46;;;;;;;;;2.67;1.00;;;;;20.78;50.40;101056.72;5057773;27;45562;-69
2023/09/19 08:15:20;;;;;;;;;2.00;2.00;;;;;20.93;50.01;101074.81;5058142;28;45568;-68
2023/09/19 08:17:46;;;;;;;;;3.67;2.00;;;;;21.00;50.30;101071.91;5059960;27;45475;-69
2023/09/19 08:20:17;;;;;;;;;4.00;2.00;;;;;20.88;49.67;101058.13;5057463;27;45484;-69
2023/09/19 08:22:47;;;;;;;;;3.67;1.00;;;;;20.86;50.20;101069.78;5058518;27;45517;-68
2023/09/19 08:25:17;;;;;;;;;3.67;2.00;;;;;20.78;50.35;101075.34;5059321;27;45447;-71
2023/09/19 08:27:47;;;;;;;;;1.00;1.00;;;;;20.73;50.41;101080.81;5072305;27;45474;-70
2023/09/19 08:30:15;;;;;;;;;4.00;1.00;;;;;20.62;51.01;101077.69;5056935;27;45496;-68
2023/09/19 08:32:42;;;;;;;;;5.33;3.00;;;;;20.56;50.53;101051.28;5057465;27;45488;-70
2023/09/19 08:35:09;;;;;;;;;4.67;2.00;;;;;20.83;50.41;101065.41;5056695;28;46526;-71
2023/09/19 08:37:35;;;;;;;;;1.67;1.67;;;;;20.95;50.20;101082.72;5057846;27;45279;-72
2023/09/19 08:40:01;;;;;;;;;5.67;3.00;;;;;20.99;50.10;101083.50;5057706;27;45409;-71
2023/09/19 08:42:27;;;;;;;;;2.33;2.33;;;;;20.98;49.85;101052.50;5061981;27;45467;-72
2023/09/19 08:44:54;;;;;;;;;4.00;3.00;;;;;21.20;49.65;101079.19;5059586;27;45383;-72
2023/09/19 08:47:50;;;;;;;;;6.00;4.00;;;;;21.28;49.43;101067.31;5059309;27;45512;-72
2023/09/19 08:50:26;;;;;;;;;6.67;4.33;;;;;21.37;49.22;101066.97;5079245;27;45565;-71
2023/09/19 08:52:55;;;;;;;;;3.00;3.00;;;;;21.35;49.26;101073.28;5057580;27;45506;-73
2023/09/19 08:55:26;;;;;;;;;7.67;4.67;;;;;21.29;49.36;101063.75;5068026;27;45539;-73
2023/09/19 08:57:58;;;;;;;;;3.67;2.33;;;;;21.00;49.84;101078.13;5057685;28;45563;-72
2023/09/19 09:00:27;;;;;;;;;3.00;1.00;;;;;20.95;50.34;101075.63;5056079;27;45341;-72
2023/09/19 09:02:54;;;;;;;;;5.00;2.00;;;;;20.98;50.59;101073.78;5056259;28;45504;-68
2023/09/19 09:05:22;;;;;;;;;12.00;7.00;;;;;20.98;50.29;101077.31;5056810;27;45566;-71
2023/09/19 09:07:52;;;;;;;;;7.00;3.00;;;;;21.01;50.32;101068.34;5057032;27;45451;-71
2023/09/19 09:10:22;;;;;;;;;12.00;6.67;;;;;21.07;50.43;101069.00;5057348;28;45492;-71
2023/09/19 09:12:50;;;;;;;;;5.67;4.67;;;;;21.22;49.95;101078.22;5088412;27;45597;-68
2023/09/19 09:15:22;;;;;;;;;6.00;2.67;;;;;21.34;49.67;101069.75;5056569;28;46788;-69
2023/09/19 09:17:52;;;;;;;;;5.00;4.33;;;;;21.53;49.37;101069.97;5056445;28;45564;-70
2023/09/19 09:20:19;;;;;;;;;5.00;3.00;;;;;21.66;48.92;101070.34;5056023;27;45363;-71
2023/09/19 09:22:55;;;;;;;;;4.67;3.00;;;;;21.79;49.13;101074.28;5057711;28;45509;-69
2023/09/19 09:25:24;;;;;;;;;3.00;2.00;;;;;21.93;48.69;101067.53;5057292;28;46079;-69
2023/09/19 09:28:01;;;;;;;;;3.67;1.33;;;;;21.83;48.34;101050.16;5058989;27;45336;-71
2023/09/19 09:30:37;;;;;;;;;2.00;1.00;;;;;21.92;47.88;101057.78;5056121;27;45584;-72
2023/09/19 09:33:13;;;;;;;;;3.00;1.33;;;;;22.06;48.00;101075.91;5056215;28;45459;-71
2023/09/19 09:36:02;;;;;;;;;4.75;1.00;;;;;21.88;48.06;101062.41;5088472;27;47007;-70
2023/09/19 09:38:46;;;;;;;;;4.00;2.00;;;;;21.85;47.97;101064.31;5057361;28;45397;-71
2023/09/19 09:41:15;;;;;;;;;2.00;2.00;;;;;21.93;47.70;101052.41;5056794;27;45497;-70
2023/09/19 09:43:45;;;;;;;;;2.25;2.00;;;;;22.18;47.16;101064.72;5055972;28;45607;-70
2023/09/19 09:49:26;;;;;;;;;2.00;2.00;;;;;22.12;47.00;101060.53;5056732;27;45808;-70
2023/09/19 09:52:00;;;;;;;;;3.25;1.50;;;;;22.34;45.96;101057.88;5055201;27;45583;-71
2023/09/19 09:54:33;;;;;;;;;2.00;1.75;;;;;22.48;45.68;101054.63;5068195;27;45964;-72
2023/09/19 09:57:20;;;;;;;;;3.25;1.00;;;;;22.65;45.51;101056.56;5074885;27;45400;-70
2023/09/19 09:59:58;;;;;;;;;3.25;1.75;;;;;22.88;44.97;101068.06;5060288;27;45616;-75
2023/09/19 10:02:41;;;;;;;;;2.00;2.00;;;;;22.80;44.23;101022.97;5059879;28;45516;-70
2023/09/19 10:05:21;;;;;;;;;1.00;1.00;;;;;23.00;43.81;101052.38;5059654;27;45728;-71
2023/09/19 10:07:53;;;;;;;;;1.75;1.50;;;;;23.08;43.72;101036.84;5066919;27;47456;-70
2023/09/19 10:13:15;;;;;;;;;2.00;2.00;;;;;23.10;42.93;101043.94;5067432;27;45470;-71
2023/09/19 10:15:56;;;;;;;;;3.50;1.00;;;;;23.17;43.22;101042.72;5076811;27;45324;-70
2023/09/19 10:18:26;;;;;;;;;0.75;0.75;;;;;23.13;42.82;101033.97;5072470;27;45581;-70
2023/09/19 10:20:52;;;;;;;;;1.50;1.00;;;;;23.19;42.60;101027.50;5065311;27;45596;-69
2023/09/19 10:23:23;;;;;;;;;2.50;1.00;;;;;23.32;42.73;101038.47;5059412;28;45436;-70
2023/09/19 10:25:50;;;;;;;;;1.00;1.00;;;;;23.47;42.35;101040.44;5059019;27;45774;-71
2023/09/19 10:28:21;;;;;;;;;3.25;1.00;;;;;23.45;42.32;101011.09;5070384;27;45541;-70
2023/09/19 10:30:52;;;;;;;;;1.00;1.00;;;;;23.85;41.89;101027.09;5073348;27;45555;-70
2023/09/19 10:33:25;;;;;;;;;1.00;1.00;;;;;24.10;41.23;101022.22;5072175;27;45565;-69
2023/09/19 10:35:52;;;;;;;;;1.25;1.25;;;;;24.26;41.82;101010.78;5076960;27;45666;-71
2023/09/19 10:38:21;;;;;;;;;0.25;0.25;;;;;24.33;41.14;101021.09;5065763;27;46880;-69
2023/09/19 10:40:54;;;;;;;;;1.00;1.00;;;;;24.03;41.40;101012.78;5070975;27;45497;-69
2023/09/19 10:43:21;;;;;;;;;2.00;1.25;;;;;23.88;42.07;101017.09;5066008;27;45619;-68
2023/09/19 10:45:52;;;;;;;;;2.00;2.00;;;;;23.78;42.06;101020.31;5070161;27;45481;-66
2023/09/19 10:48:25;;;;;;;;;1.75;1.75;;;;;23.71;42.72;101012.53;5070816;27;45419;-67
2023/09/19 10:51:11;;;;;;;;;2.00;1.00;;;;;23.68;42.45;101034.09;5064780;27;45203;-68
2023/09/19 10:53:50;;;;;;;;;2.50;1.00;;;;;23.56;42.57;101013.25;5076232;27;45487;-69
2023/09/19 10:56:36;;;;;;;;;1.00;1.00;;;;;23.31;42.41;100994.84;5064090;27;45512;-70
2023/09/19 10:59:14;;;;;;;;;2.00;0.50;;;;;22.86;42.54;100954.13;5068844;27;47331;-68
2023/09/19 11:01:44;;;;;;;;;7.00;1.00;;;;;23.23;43.08;101021.94;5072549;27;45515;-68
2023/09/19 11:04:34;;;;;;;;;2.25;1.25;;;;;23.46;42.89;101010.16;5068213;27;45487;-66
2023/09/19 11:07:03;;;;;;;;;2.00;1.00;;;;;23.70;42.78;101000.13;5068424;27;45611;-69
2023/09/19 11:09:47;;;;;;;;;2.00;1.00;;;;;23.71;42.21;101004.50;5062552;27;45259;-70
2023/09/19 11:12:40;;;;;;;;;4.75;3.00;;;;;23.85;41.91;101014.56;5065137;27;45599;-69
2023/09/19 11:15:08;;;;;;;;;39.00;33.33;;;;;23.75;41.91;101013.28;5069104;28;45573;-68
2023/09/19 11:17:37;;;;;;;;;5.67;5.33;;;;;23.67;42.20;101013.63;5068381;27;45670;-71
2023/09/19 11:22:53;;;;;;;;;83.50;73.50;;;;;23.08;43.91;101025.31;5067960;27;45528;-70
2023/09/19 11:25:39;;;;;;;;;141.33;121.33;;;;;23.27;43.75;101009.28;5072620;27;46783;-69
2023/09/19 11:28:08;;;;;;;;;65.75;50.25;;;;;23.53;43.34;101009.88;5064312;27;45495;-68
2023/09/19 11:30:36;;;;;;;;;40.67;33.00;;;;;23.47;42.90;101005.69;5075445;27;47780;-69
2023/09/19 11:36:05;;;;;;;;;30.33;25.33;;;;;23.61;42.94;100987.19;5069435;27;45480;-69
2023/09/19 11:38:52;;;;;;;;;29.67;23.33;;;;;23.60;43.43;100990.78;5069459;28;45600;-67
2023/09/19 11:41:21;;;;;;;;;38.00;30.00;;;;;23.56;43.20;100991.88;5068855;27;45576;-68
2023/09/19 11:43:51;;;;;;;;;39.00;32.00;;;;;23.59;44.61;100993.56;5065915;28;45169;-67
2023/09/19 11:46:27;;;;;;;;;29.67;23.00;;;;;24.04;42.85;101006.50;5073721;27;45532;-69
2023/09/19 11:48:56;;;;;;;;;28.33;23.67;;;;;25.90;39.87;100958.16;5068071;27;45391;-66